sensor_id;sensor_type;location;lat;lon;timestamp;pressure;altitude;pressure_sealevel;temperature;humidity
15193;BME280;7697;51.630;7.484;2023-04-09T00:01:44;101831.72;;;8.47;94.47
15193;BME280;7697;51.630;7.484;2023-04-09T00:06:45;101839.78;;;8.45;94.30
15193;BME280;7697;51.630;7.484;2023-04-09T00:11:49;101835.00;;;8.41;94.67
15193;BME280;7697;51.630;7.484;2023-04-09T00:16:50;101825.63;;;8.28;94.79
15193;BME280;7697;51.630;7.484;2023-04-09T00:21:52;101833.16;;;8.23;94.92
15193;BME280;7697;51.630;7.484;2023-04-09T00:26:56;101840.41;;;8.21;94.41
15193;BME280;7697;51.630;7.484;2023-04-09T00:31:57;101824.75;;;8.02;94.94
15193;BME280;7697;51.630;7.484;2023-04-09T00:36:59;101836.94;;;8.03;94.72
15193;BME280;7697;51.630;7.484;2023-04-09T00:42:02;101819.97;;;7.88;94.71
15193;BME280;7697;51.630;7.484;2023-04-09T00:47:05;101820.72;;;7.80;94.29
15193;BME280;7697;51.630;7.484;2023-04-09T00:52:06;101830.09;;;7.75;95.30
15193;BME280;7697;51.630;7.484;2023-04-09T00:57:10;101815.31;;;7.64;94.75
15193;BME280;7697;51.630;7.484;2023-04-09T01:02:11;101835.34;;;7.57;95.13
15193;BME280;7697;51.630;7.484;2023-04-09T01:07:19;101822.91;;;7.49;95.17
15193;BME280;7697;51.630;7.484;2023-04-09T01:12:30;101831.94;;;7.47;95.03
15193;BME280;7697;51.630;7.484;2023-04-09T01:17:35;101830.41;;;7.44;95.47
15193;BME280;7697;51.630;7.484;2023-04-09T01:22:51;101827.78;;;7.44;96.03
15193;BME280;7697;51.630;7.484;2023-04-09T01:28:06;101825.59;;;7.40;95.57
15193;BME280;7697;51.630;7.484;2023-04-09T01:33:11;101826.03;;;7.35;95.93
15193;BME280;7697;51.630;7.484;2023-04-09T01:38:16;101824.44;;;7.25;95.91
15193;BME280;7697;51.630;7.484;2023-04-09T01:43:20;101814.22;;;7.12;95.40
15193;BME280;7697;51.630;7.484;2023-04-09T01:48:22;101810.53;;;7.05;95.05
15193;BME280;7697;51.630;7.484;2023-04-09T01:53:24;101812.22;;;6.96;95.62
15193;BME280;7697;51.630;7.484;2023-04-09T01:58:29;101826.34;;;6.95;95.16
15193;BME280;7697;51.630;7.484;2023-04-09T02:03:37;101815.16;;;6.84;96.15
15193;BME280;7697;51.630;7.484;2023-04-09T02:08:42;101814.22;;;6.75;95.72
15193;BME280;7697;51.630;7.484;2023-04-09T02:13:47;101822.97;;;6.75;95.75
15193;BME280;7697;51.630;7.484;2023-04-09T02:18:52;101812.06;;;6.61;96.17
15193;BME280;7697;51.630;7.484;2023-04-09T02:23:54;101815.81;;;6.58;95.67
15193;BME280;7697;51.630;7.484;2023-04-09T02:28:57;101803.78;;;6.46;95.54
15193;BME280;7697;51.630;7.484;2023-04-09T02:33:59;101801.47;;;6.33;96.02
15193;BME280;7697;51.630;7.484;2023-04-09T02:39:01;101812.25;;;6.40;95.28
15193;BME280;7697;51.630;7.484;2023-04-09T02:44:04;101805.34;;;6.29;95.35
15193;BME280;7697;51.630;7.484;2023-04-09T02:49:06;101797.72;;;6.26;96.11
15193;BME280;7697;51.630;7.484;2023-04-09T02:54:08;101787.75;;;6.20;95.91
15193;BME280;7697;51.630;7.484;2023-04-09T02:59:12;101788.34;;;6.14;95.92
15193;BME280;7697;51.630;7.484;2023-04-09T03:04:14;101780.84;;;6.00;96.33
15193;BME280;7697;51.630;7.484;2023-04-09T03:09:15;101775.34;;;5.93;95.83
15193;BME280;7697;51.630;7.484;2023-04-09T03:14:19;101777.69;;;5.96;96.08
15193;BME280;7697;51.630;7.484;2023-04-09T03:19:20;101779.91;;;5.91;95.92
15193;BME280;7697;51.630;7.484;2023-04-09T03:24:22;101766.72;;;5.82;96.50
15193;BME280;7697;51.630;7.484;2023-04-09T03:29:25;101768.38;;;5.73;97.19
15193;BME280;7697;51.630;7.484;2023-04-09T03:34:30;101767.00;;;5.69;97.67
15193;BME280;7697;51.630;7.484;2023-04-09T03:39:32;101755.78;;;5.57;97.42
15193;BME280;7697;51.630;7.484;2023-04-09T03:44:36;101766.88;;;5.61;98.43
15193;BME280;7697;51.630;7.484;2023-04-09T03:49:37;101759.69;;;5.53;98.52
15193;BME280;7697;51.630;7.484;2023-04-09T03:54:40;101756.63;;;5.48;98.90
15193;BME280;7697;51.630;7.484;2023-04-09T03:59:44;101773.78;;;5.52;99.34
15193;BME280;7697;51.630;7.484;2023-04-09T04:04:46;101769.63;;;5.50;99.22
15193;BME280;7697;51.630;7.484;2023-04-09T04:09:47;101760.63;;;5.43;99.19
15193;BME280;7697;51.630;7.484;2023-04-09T04:14:50;101751.91;;;5.33;99.44
15193;BME280;7697;51.630;7.484;2023-04-09T04:19:52;101757.84;;;5.35;99.72
15193;BME280;7697;51.630;7.484;2023-04-09T04:24:54;101760.06;;;5.39;99.63
15193;BME280;7697;51.630;7.484;2023-04-09T04:29:57;101774.03;;;5.40;99.46
15193;BME280;7697;51.630;7.484;2023-04-09T04:35:01;101766.97;;;5.31;99.15
15193;BME280;7697;51.630;7.484;2023-04-09T04:40:03;101784.38;;;5.32;99.47
15193;BME280;7697;51.630;7.484;2023-04-09T04:45:08;101777.06;;;5.25;99.94
15193;BME280;7697;51.630;7.484;2023-04-09T04:50:10;101781.19;;;5.18;100.00
15193;BME280;7697;51.630;7.484;2023-04-09T04:55:12;101767.59;;;5.04;100.00
15193;BME280;7697;51.630;7.484;2023-04-09T05:00:15;101764.97;;;5.04;100.00
15193;BME280;7697;51.630;7.484;2023-04-09T05:05:18;101778.66;;;5.07;100.00
15193;BME280;7697;51.630;7.484;2023-04-09T05:10:19;101780.59;;;5.05;100.00
15193;BME280;7697;51.630;7.484;2023-04-09T05:15:23;101780.28;;;4.99;100.00
15193;BME280;7697;51.630;7.484;2023-04-09T05:20:26;101771.13;;;4.93;100.00
15193;BME280;7697;51.630;7.484;2023-04-09T05:25:28;101781.13;;;4.99;100.00
15193;BME280;7697;51.630;7.484;2023-04-09T05:30:32;101774.91;;;5.00;100.00
15193;BME280;7697;51.630;7.484;2023-04-09T05:35:37;101775.59;;;5.02;100.00
15193;BME280;7697;51.630;7.484;2023-04-09T05:40:39;101787.50;;;5.06;100.00
15193;BME280;7697;51.630;7.484;2023-04-09T05:45:43;101772.28;;;5.00;100.00
15193;BME280;7697;51.630;7.484;2023-04-09T05:50:48;101792.22;;;5.12;100.00
15193;BME280;7697;51.630;7.484;2023-04-09T05:55:51;101787.66;;;5.14;100.00
15193;BME280;7697;51.630;7.484;2023-04-09T06:00:54;101800.81;;;5.24;100.00
15193;BME280;7697;51.630;7.484;2023-04-09T06:05:56;101783.13;;;5.26;100.00
15193;BME280;7697;51.630;7.484;2023-04-09T06:10:58;101799.19;;;5.42;100.00
15193;BME280;7697;51.630;7.484;2023-04-09T06:16:02;101800.59;;;5.56;100.00
15193;BME280;7697;51.630;7.484;2023-04-09T06:21:05;101804.50;;;5.71;100.00
15193;BME280;7697;51.630;7.484;2023-04-09T06:26:07;101808.63;;;5.83;100.00
15193;BME280;7697;51.630;7.484;2023-04-09T06:31:10;101800.09;;;6.00;100.00
15193;BME280;7697;51.630;7.484;2023-04-09T06:36:12;101796.22;;;6.14;100.00
15193;BME280;7697;51.630;7.484;2023-04-09T06:41:14;101809.59;;;6.50;100.00
15193;BME280;7697;51.630;7.484;2023-04-09T06:46:18;101813.97;;;6.68;100.00
15193;BME280;7697;51.630;7.484;2023-04-09T06:51:20;101817.63;;;6.95;100.00
15193;BME280;7697;51.630;7.484;2023-04-09T06:56:22;101812.13;;;7.15;100.00
15193;BME280;7697;51.630;7.484;2023-04-09T07:01:25;101810.22;;;7.35;100.00
15193;BME280;7697;51.630;7.484;2023-04-09T07:06:27;101803.09;;;7.63;100.00
15193;BME280;7697;51.630;7.484;2023-04-09T07:11:29;101801.38;;;7.89;100.00
15193;BME280;7697;51.630;7.484;2023-04-09T07:16:32;101800.16;;;8.19;98.99
15193;BME280;7697;51.630;7.484;2023-04-09T07:21:35;101804.66;;;8.45;96.39
15193;BME280;7697;51.630;7.484;2023-04-09T07:26:36;101809.44;;;8.67;96.02
15193;BME280;7697;51.630;7.484;2023-04-09T07:31:40;101822.13;;;8.97;95.14
15193;BME280;7697;51.630;7.484;2023-04-09T07:36:41;101823.91;;;9.31;93.87
15193;BME280;7697;51.630;7.484;2023-04-09T07:41:43;101828.31;;;9.64;92.64
15193;BME280;7697;51.630;7.484;2023-04-09T07:46:48;101831.00;;;9.97;91.74
15193;BME280;7697;51.630;7.484;2023-04-09T07:51:50;101819.97;;;10.26;90.71
15193;BME280;7697;51.630;7.484;2023-04-09T07:56:51;101820.25;;;10.71;88.41
15193;BME280;7697;51.630;7.484;2023-04-09T08:01:55;101819.31;;;11.03;86.55
15193;BME280;7697;51.630;7.484;2023-04-09T08:06:58;101819.84;;;11.29;85.81
15193;BME280;7697;51.630;7.484;2023-04-09T08:11:59;101823.63;;;11.66;84.46
15193;BME280;7697;51.630;7.484;2023-04-09T08:17:03;101821.97;;;11.96;84.35
15193;BME280;7697;51.630;7.484;2023-04-09T08:22:05;101811.81;;;12.22;83.04
15193;BME280;7697;51.630;7.484;2023-04-09T08:27:06;101812.63;;;12.60;81.92
15193;BME280;7697;51.630;7.484;2023-04-09T08:32:10;101829.75;;;13.02;80.32
15193;BME280;7697;51.630;7.484;2023-04-09T08:37:12;101820.50;;;13.42;79.95
15193;BME280;7697;51.630;7.484;2023-04-09T08:42:14;101826.69;;;13.85;77.79
15193;BME280;7697;51.630;7.484;2023-04-09T08:47:18;101824.63;;;14.51;75.97
15193;BME280;7697;51.630;7.484;2023-04-09T08:52:29;101812.19;;;14.58;72.28
15193;BME280;7697;51.630;7.484;2023-04-09T08:57:36;101812.72;;;14.81;70.62
15193;BME280;7697;51.630;7.484;2023-04-09T09:03:00;101814.31;;;15.10;68.13
15193;BME280;7697;51.630;7.484;2023-04-09T09:08:02;101811.34;;;15.39;66.52
15193;BME280;7697;51.630;7.484;2023-04-09T09:13:16;101817.44;;;15.74;65.29
15193;BME280;7697;51.630;7.484;2023-04-09T09:18:20;101813.16;;;16.06;66.12
15193;BME280;7697;51.630;7.484;2023-04-09T09:23:33;101804.91;;;16.47;62.72
15193;BME280;7697;51.630;7.484;2023-04-09T09:28:36;101800.38;;;16.81;61.11
15193;BME280;7697;51.630;7.484;2023-04-09T09:33:39;101795.47;;;16.71;60.96
15193;BME280;7697;51.630;7.484;2023-04-09T09:38:52;101808.22;;;16.23;59.43
15193;BME280;7697;51.630;7.484;2023-04-09T09:43:54;101798.94;;;16.59;59.56
15193;BME280;7697;51.630;7.484;2023-04-09T09:48:58;101792.16;;;16.56;56.29
15193;BME280;7697;51.630;7.484;2023-04-09T09:54:01;101789.09;;;16.39;57.99
15193;BME280;7697;51.630;7.484;2023-04-09T09:59:06;101793.81;;;16.31;55.41
15193;BME280;7697;51.630;7.484;2023-04-09T10:04:13;101780.00;;;16.73;53.97
15193;BME280;7697;51.630;7.484;2023-04-09T10:09:15;101777.56;;;16.39;56.42
15193;BME280;7697;51.630;7.484;2023-04-09T10:14:17;101772.44;;;16.11;56.38
15193;BME280;7697;51.630;7.484;2023-04-09T10:19:21;101767.91;;;16.31;58.32
15193;BME280;7697;51.630;7.484;2023-04-09T10:24:23;101781.34;;;17.02;57.33
15193;BME280;7697;51.630;7.484;2023-04-09T10:29:27;101773.97;;;17.42;57.40
15193;BME280;7697;51.630;7.484;2023-04-09T10:34:34;101764.03;;;17.81;56.50
15193;BME280;7697;51.630;7.484;2023-04-09T10:39:39;101756.59;;;17.83;52.72
15193;BME280;7697;51.630;7.484;2023-04-09T10:44:42;101755.41;;;18.47;52.65
15193;BME280;7697;51.630;7.484;2023-04-09T10:49:48;101754.94;;;18.74;50.56
15193;BME280;7697;51.630;7.484;2023-04-09T10:54:50;101765.69;;;18.74;48.53
15193;BME280;7697;51.630;7.484;2023-04-09T10:59:53;101759.66;;;18.36;49.82
15193;BME280;7697;51.630;7.484;2023-04-09T11:05:11;101752.00;;;17.90;48.94
15193;BME280;7697;51.630;7.484;2023-04-09T11:10:18;101743.00;;;17.84;50.06
15193;BME280;7697;51.630;7.484;2023-04-09T11:15:21;101731.19;;;17.60;50.62
15193;BME280;7697;51.630;7.484;2023-04-09T11:20:25;101718.97;;;17.96;48.48
15193;BME280;7697;51.630;7.484;2023-04-09T11:25:28;101732.75;;;18.24;45.62
15193;BME280;7697;51.630;7.484;2023-04-09T11:30:31;101714.66;;;18.38;46.32
15193;BME280;7697;51.630;7.484;2023-04-09T11:35:35;101726.03;;;19.06;45.61
15193;BME280;7697;51.630;7.484;2023-04-09T11:40:40;101722.69;;;19.11;45.43
15193;BME280;7697;51.630;7.484;2023-04-09T11:45:47;101716.94;;;19.37;45.39
15193;BME280;7697;51.630;7.484;2023-04-09T11:50:51;101713.19;;;19.68;41.03
15193;BME280;7697;51.630;7.484;2023-04-09T11:55:53;101718.88;;;19.48;43.04
15193;BME280;7697;51.630;7.484;2023-04-09T12:00:57;101724.66;;;19.45;44.21
15193;BME280;7697;51.630;7.484;2023-04-09T12:06:08;101725.53;;;19.28;42.70
15193;BME280;7697;51.630;7.484;2023-04-09T12:11:11;101710.25;;;18.80;43.26
15193;BME280;7697;51.630;7.484;2023-04-09T12:16:13;101712.09;;;18.07;44.19
15193;BME280;7697;51.630;7.484;2023-04-09T12:21:17;101701.38;;;18.07;45.70
15193;BME280;7697;51.630;7.484;2023-04-09T12:26:19;101692.84;;;18.10;44.55
15193;BME280;7697;51.630;7.484;2023-04-09T12:31:20;101707.50;;;18.32;45.15
15193;BME280;7697;51.630;7.484;2023-04-09T12:36:24;101690.03;;;18.05;44.29
15193;BME280;7697;51.630;7.484;2023-04-09T12:41:29;101699.06;;;18.28;44.36
15193;BME280;7697;51.630;7.484;2023-04-09T12:46:32;101696.50;;;18.58;43.71
15193;BME280;7697;51.630;7.484;2023-04-09T12:51:37;101700.91;;;19.01;42.79
15193;BME280;7697;51.630;7.484;2023-04-09T12:56:56;101687.50;;;19.42;43.81
15193;BME280;7697;51.630;7.484;2023-04-09T13:02:00;101687.94;;;19.69;42.28
15193;BME280;7697;51.630;7.484;2023-04-09T13:07:04;101692.28;;;19.82;42.58
15193;BME280;7697;51.630;7.484;2023-04-09T13:12:06;101687.50;;;19.84;41.93
15193;BME280;7697;51.630;7.484;2023-04-09T13:17:08;101679.91;;;19.39;42.34
15193;BME280;7697;51.630;7.484;2023-04-09T13:22:11;101676.13;;;19.59;43.14
15193;BME280;7697;51.630;7.484;2023-04-09T13:27:16;101681.38;;;20.47;38.96
15193;BME280;7697;51.630;7.484;2023-04-09T13:32:17;101673.91;;;19.79;41.10
15193;BME280;7697;51.630;7.484;2023-04-09T13:37:22;101675.59;;;19.38;41.70
15193;BME280;7697;51.630;7.484;2023-04-09T13:42:25;101665.69;;;19.51;41.09
15193;BME280;7697;51.630;7.484;2023-04-09T13:47:27;101668.47;;;19.32;41.85
15193;BME280;7697;51.630;7.484;2023-04-09T13:52:30;101653.63;;;19.41;42.21
15193;BME280;7697;51.630;7.484;2023-04-09T13:57:32;101640.78;;;19.43;43.24
15193;BME280;7697;51.630;7.484;2023-04-09T14:02:34;101647.44;;;19.41;41.00
15193;BME280;7697;51.630;7.484;2023-04-09T14:07:37;101661.94;;;19.40;41.92
15193;BME280;7697;51.630;7.484;2023-04-09T14:12:39;101641.50;;;19.51;41.17
15193;BME280;7697;51.630;7.484;2023-04-09T14:17:42;101641.38;;;19.45;41.89
15193;BME280;7697;51.630;7.484;2023-04-09T14:22:45;101649.81;;;19.49;41.26
15193;BME280;7697;51.630;7.484;2023-04-09T14:27:48;101634.13;;;19.46;42.42
15193;BME280;7697;51.630;7.484;2023-04-09T14:32:51;101635.41;;;19.43;41.49
15193;BME280;7697;51.630;7.484;2023-04-09T14:37:55;101627.69;;;19.35;42.22
15193;BME280;7697;51.630;7.484;2023-04-09T14:42:56;101630.00;;;19.20;41.32
15193;BME280;7697;51.630;7.484;2023-04-09T14:47:58;101622.97;;;18.78;41.31
15193;BME280;7697;51.630;7.484;2023-04-09T14:53:03;101628.38;;;18.59;42.37
15193;BME280;7697;51.630;7.484;2023-04-09T14:58:05;101609.72;;;18.64;42.18
15193;BME280;7697;51.630;7.484;2023-04-09T15:03:07;101611.63;;;18.76;42.23
15193;BME280;7697;51.630;7.484;2023-04-09T15:08:11;101602.44;;;18.83;42.47
15193;BME280;7697;51.630;7.484;2023-04-09T15:13:13;101604.56;;;18.93;43.11
15193;BME280;7697;51.630;7.484;2023-04-09T15:18:15;101608.19;;;20.10;39.46
15193;BME280;7697;51.630;7.484;2023-04-09T15:23:19;101607.03;;;19.06;40.99
15193;BME280;7697;51.630;7.484;2023-04-09T15:28:21;101589.50;;;18.62;41.93
15193;BME280;7697;51.630;7.484;2023-04-09T15:33:26;101586.47;;;18.40;42.95
15193;BME280;7697;51.630;7.484;2023-04-09T15:38:29;101589.72;;;18.12;43.14
15193;BME280;7697;51.630;7.484;2023-04-09T15:43:31;101602.97;;;18.07;43.12
15193;BME280;7697;51.630;7.484;2023-04-09T15:48:33;101598.13;;;17.97;44.04
15193;BME280;7697;51.630;7.484;2023-04-09T15:53:37;101593.28;;;17.88;44.19
15193;BME280;7697;51.630;7.484;2023-04-09T15:58:39;101594.38;;;17.62;44.27
15193;BME280;7697;51.630;7.484;2023-04-09T16:03:40;101583.78;;;17.42;44.46
15193;BME280;7697;51.630;7.484;2023-04-09T16:08:44;101589.50;;;17.46;45.64
15193;BME280;7697;51.630;7.484;2023-04-09T16:13:46;101578.03;;;17.39;44.95
15193;BME280;7697;51.630;7.484;2023-04-09T16:18:48;101580.66;;;17.20;44.81
15193;BME280;7697;51.630;7.484;2023-04-09T16:23:51;101590.19;;;17.16;44.96
15193;BME280;7697;51.630;7.484;2023-04-09T16:28:53;101592.53;;;17.06;45.12
15193;BME280;7697;51.630;7.484;2023-04-09T16:33:55;101586.81;;;16.96;45.70
15193;BME280;7697;51.630;7.484;2023-04-09T16:38:59;101587.44;;;16.92;45.55
15193;BME280;7697;51.630;7.484;2023-04-09T16:44:00;101582.81;;;16.80;46.48
15193;BME280;7697;51.630;7.484;2023-04-09T16:49:02;101573.19;;;16.73;45.97
15193;BME280;7697;51.630;7.484;2023-04-09T16:54:05;101572.56;;;16.71;46.65
15193;BME280;7697;51.630;7.484;2023-04-09T16:59:07;101564.56;;;16.64;46.57
15193;BME280;7697;51.630;7.484;2023-04-09T17:04:11;101551.88;;;16.46;47.19
15193;BME280;7697;51.630;7.484;2023-04-09T17:09:15;101546.63;;;16.33;47.05
15193;BME280;7697;51.630;7.484;2023-04-09T17:14:16;101538.63;;;16.20;47.64
15193;BME280;7697;51.630;7.484;2023-04-09T17:19:19;101554.09;;;16.18;47.61
15193;BME280;7697;51.630;7.484;2023-04-09T17:24:22;101537.72;;;15.95;47.75
15193;BME280;7697;51.630;7.484;2023-04-09T17:29:24;101528.72;;;15.76;47.97
15193;BME280;7697;51.630;7.484;2023-04-09T17:34:26;101534.94;;;15.63;48.60
15193;BME280;7697;51.630;7.484;2023-04-09T17:39:29;101541.91;;;15.45;48.70
15193;BME280;7697;51.630;7.484;2023-04-09T17:44:31;101557.31;;;15.43;49.19
15193;BME280;7697;51.630;7.484;2023-04-09T17:49:34;101549.53;;;15.28;49.73
15193;BME280;7697;51.630;7.484;2023-04-09T17:54:38;101555.06;;;15.20;49.95
15193;BME280;7697;51.630;7.484;2023-04-09T17:59:40;101564.09;;;15.06;50.08
15193;BME280;7697;51.630;7.484;2023-04-09T18:04:42;101545.81;;;14.89;50.85
15193;BME280;7697;51.630;7.484;2023-04-09T18:09:45;101561.19;;;14.87;50.52
15193;BME280;7697;51.630;7.484;2023-04-09T18:14:47;101562.81;;;14.75;50.07
15193;BME280;7697;51.630;7.484;2023-04-09T18:19:52;101578.38;;;14.65;50.03
15193;BME280;7697;51.630;7.484;2023-04-09T18:24:55;101579.59;;;14.56;50.55
15193;BME280;7697;51.630;7.484;2023-04-09T18:29:57;101583.84;;;14.44;51.01
15193;BME280;7697;51.630;7.484;2023-04-09T18:34:59;101578.84;;;14.34;51.51
15193;BME280;7697;51.630;7.484;2023-04-09T18:40:04;101570.00;;;14.20;51.73
15193;BME280;7697;51.630;7.484;2023-04-09T18:45:06;101581.44;;;14.14;51.95
15193;BME280;7697;51.630;7.484;2023-04-09T18:50:09;101585.28;;;14.05;52.33
15193;BME280;7697;51.630;7.484;2023-04-09T18:55:13;101577.59;;;13.89;52.58
15193;BME280;7697;51.630;7.484;2023-04-09T19:00:15;101590.06;;;13.82;52.44
15193;BME280;7697;51.630;7.484;2023-04-09T19:05:17;101588.75;;;13.71;53.14
15193;BME280;7697;51.630;7.484;2023-04-09T19:10:21;101578.22;;;13.57;52.54
15193;BME280;7697;51.630;7.484;2023-04-09T19:15:24;101587.41;;;13.54;52.84
15193;BME280;7697;51.630;7.484;2023-04-09T19:20:27;101588.75;;;13.43;53.27
15193;BME280;7697;51.630;7.484;2023-04-09T19:25:31;101590.81;;;13.41;53.78
15193;BME280;7697;51.630;7.484;2023-04-09T19:30:33;101584.16;;;13.31;54.12
15193;BME280;7697;51.630;7.484;2023-04-09T19:35:35;101593.16;;;13.30;55.17
15193;BME280;7697;51.630;7.484;2023-04-09T19:40:41;101598.63;;;13.22;55.23
15193;BME280;7697;51.630;7.484;2023-04-09T19:45:43;101589.03;;;13.06;55.65
15193;BME280;7697;51.630;7.484;2023-04-09T19:50:45;101571.28;;;12.92;55.50
15193;BME280;7697;51.630;7.484;2023-04-09T19:55:49;101576.38;;;12.87;56.08
15193;BME280;7697;51.630;7.484;2023-04-09T20:00:51;101564.41;;;12.76;56.35
15193;BME280;7697;51.630;7.484;2023-04-09T20:05:53;101566.72;;;12.64;56.49
15193;BME280;7697;51.630;7.484;2023-04-09T20:10:56;101575.09;;;12.61;57.35
15193;BME280;7697;51.630;7.484;2023-04-09T20:15:58;101589.09;;;12.55;58.81
15193;BME280;7697;51.630;7.484;2023-04-09T20:21:00;101586.13;;;12.44;59.56
15193;BME280;7697;51.630;7.484;2023-04-09T20:26:03;101577.25;;;12.22;59.46
15193;BME280;7697;51.630;7.484;2023-04-09T20:31:08;101575.97;;;12.18;59.61
15193;BME280;7697;51.630;7.484;2023-04-09T20:36:13;101589.72;;;12.07;59.77
15193;BME280;7697;51.630;7.484;2023-04-09T20:41:17;101579.38;;;11.97;59.92
15193;BME280;7697;51.630;7.484;2023-04-09T20:46:19;101571.88;;;11.86;60.57
15193;BME280;7697;51.630;7.484;2023-04-09T20:51:20;101572.78;;;11.78;61.00
15193;BME280;7697;51.630;7.484;2023-04-09T20:56:24;101586.72;;;11.72;61.06
15193;BME280;7697;51.630;7.484;2023-04-09T21:01:26;101578.25;;;11.62;61.64
15193;BME280;7697;51.630;7.484;2023-04-09T21:06:28;101576.19;;;11.49;61.92
15193;BME280;7697;51.630;7.484;2023-04-09T21:11:31;101557.22;;;11.38;62.70
15193;BME280;7697;51.630;7.484;2023-04-09T21:16:33;101564.63;;;11.27;62.76
15193;BME280;7697;51.630;7.484;2023-04-09T21:21:36;101557.81;;;11.10;63.24
15193;BME280;7697;51.630;7.484;2023-04-09T21:26:39;101556.28;;;10.93;63.84
15193;BME280;7697;51.630;7.484;2023-04-09T21:31:41;101550.94;;;10.78;64.53
15193;BME280;7697;51.630;7.484;2023-04-09T21:36:42;101540.44;;;10.62;64.92
15193;BME280;7697;51.630;7.484;2023-04-09T21:41:47;101535.16;;;10.62;64.99
15193;BME280;7697;51.630;7.484;2023-04-09T21:46:48;101538.69;;;10.55;65.67
15193;BME280;7697;51.630;7.484;2023-04-09T21:51:51;101547.13;;;10.50;65.92
15193;BME280;7697;51.630;7.484;2023-04-09T21:56:56;101529.34;;;10.36;65.81
15193;BME280;7697;51.630;7.484;2023-04-09T22:01:58;101555.34;;;10.32;65.77
15193;BME280;7697;51.630;7.484;2023-04-09T22:06:59;101541.84;;;10.19;66.89
15193;BME280;7697;51.630;7.484;2023-04-09T22:12:03;101533.59;;;10.06;67.13
15193;BME280;7697;51.630;7.484;2023-04-09T22:17:05;101536.94;;;10.00;67.36
15193;BME280;7697;51.630;7.484;2023-04-09T22:22:08;101544.72;;;9.93;67.29
15193;BME280;7697;51.630;7.484;2023-04-09T22:27:12;101531.88;;;9.82;68.01
15193;BME280;7697;51.630;7.484;2023-04-09T22:32:14;101529.59;;;9.71;68.47
15193;BME280;7697;51.630;7.484;2023-04-09T22:37:17;101516.56;;;9.61;68.46
15193;BME280;7697;51.630;7.484;2023-04-09T22:42:20;101519.53;;;9.58;69.12
15193;BME280;7697;51.630;7.484;2023-04-09T22:47:22;101538.03;;;9.58;68.89
15193;BME280;7697;51.630;7.484;2023-04-09T22:52:23;101543.03;;;9.53;69.09
15193;BME280;7697;51.630;7.484;2023-04-09T22:57:27;101553.94;;;9.50;69.68
15193;BME280;7697;51.630;7.484;2023-04-09T23:02:29;101569.78;;;9.50;69.75
15193;BME280;7697;51.630;7.484;2023-04-09T23:07:31;101573.44;;;9.49;69.26
15193;BME280;7697;51.630;7.484;2023-04-09T23:12:34;101565.19;;;9.44;69.82
15193;BME280;7697;51.630;7.484;2023-04-09T23:17:36;101545.72;;;9.29;69.42
15193;BME280;7697;51.630;7.484;2023-04-09T23:22:39;101570.63;;;9.34;69.92
15193;BME280;7697;51.630;7.484;2023-04-09T23:27:43;101547.53;;;9.20;70.13
15193;BME280;7697;51.630;7.484;2023-04-09T23:32:45;101544.06;;;9.12;70.74
15193;BME280;7697;51.630;7.484;2023-04-09T23:37:47;101541.06;;;9.07;71.41
15193;BME280;7697;51.630;7.484;2023-04-09T23:42:51;101547.19;;;9.07;71.59
15193;BME280;7697;51.630;7.484;2023-04-09T23:47:52;101533.47;;;8.95;72.03
15193;BME280;7697;51.630;7.484;2023-04-09T23:52:54;101523.56;;;8.89;72.21
15193;BME280;7697;51.630;7.484;2023-04-09T23:58:00;101518.97;;;8.91;72.49
